EJU48FH LFBO-LIMC
Flight info
| Callsign | EJU48FH |
|---|---|
| Flight time | 1h 2m |
| Altitude | 36000 |
| Route | MEN7A/14L MEN DCT NINUN DCT LATAM DCT ROMAM/N0434F370 DCT ETIDO DCT NEDRU DCT RILIP/N0385F270 DCT EMMEF/N0374F250 DCT LAPRI/N0369F240 DCT MOGBO/N0374F250 DCT TOP M135 ASTIG |
| Aircraft | A320/M-SDE2E3FGHIJ1RWXYZ/LB1 |
Departure
| Time | 2026-04-30 18:11 |
|---|---|
| Airport | Toulouse-Blagnac Airport (LFBO) |
Arrival
| Time | 2026-04-30 19:13 |
|---|---|
| Airport | Milan Malpensa International Airport (LIMC) |
| Time | Latitude | Longitude | Altitude | Speed | Heading |
|---|---|---|---|---|---|
| 2026-04-30 18:04 | 43.63178 | 1.36825 | 501 ft | 0 kts | 339° |
| 2026-04-30 18:06 | 43.63206 | 1.36809 | 501 ft | 11 kts | 334° |
| 2026-04-30 18:07 | 43.63274 | 1.36558 | 501 ft | 5 kts | 320° |
| 2026-04-30 18:08 | 43.63486 | 1.36338 | 500 ft | 12 kts | 322° |
| 2026-04-30 18:09 | 43.63782 | 1.36029 | 499 ft | 20 kts | 322° |
| 2026-04-30 18:10 | 43.63693 | 1.35814 | 500 ft | 4 kts | 144° |
| 2026-04-30 18:11 | 43.61224 | 1.38331 | 1562 ft | 153 kts | 143° |
| 2026-04-30 18:11 | 43.58678 | 1.40843 | 3547 ft | 152 kts | 143° |
| 2026-04-30 18:12 | 43.56328 | 1.44291 | 4784 ft | 190 kts | 97° |
| 2026-04-30 18:13 | 43.57346 | 1.47838 | 5568 ft | 225 kts | 52° |
| 2026-04-30 18:13 | 43.60221 | 1.52832 | 6941 ft | 271 kts | 52° |
| 2026-04-30 18:14 | 43.63015 | 1.57760 | 8676 ft | 287 kts | 52° |
| 2026-04-30 18:15 | 43.66838 | 1.64497 | 10681 ft | 315 kts | 52° |
| 2026-04-30 18:15 | 43.71479 | 1.71750 | 12322 ft | 349 kts | 37° |
| 2026-04-30 18:16 | 43.75429 | 1.75776 | 13761 ft | 357 kts | 36° |
| 2026-04-30 18:16 | 43.79475 | 1.79918 | 15034 ft | 365 kts | 37° |
| 2026-04-30 18:17 | 43.81523 | 1.82024 | 15676 ft | 369 kts | 37° |
| 2026-04-30 18:17 | 43.83595 | 1.84158 | 16288 ft | 373 kts | 37° |
| 2026-04-30 18:17 | 43.87145 | 1.89428 | 17547 ft | 379 kts | 59° |
| 2026-04-30 18:18 | 43.88428 | 1.92639 | 18148 ft | 382 kts | 62° |
| 2026-04-30 18:18 | 43.89700 | 1.95907 | 18699 ft | 386 kts | 62° |
| 2026-04-30 18:18 | 43.90986 | 1.99198 | 19219 ft | 390 kts | 62° |
| 2026-04-30 18:18 | 43.92380 | 2.02433 | 19732 ft | 394 kts | 54° |
| 2026-04-30 18:19 | 43.94120 | 2.05391 | 20256 ft | 397 kts | 49° |
| 2026-04-30 18:19 | 43.95925 | 2.08312 | 20759 ft | 401 kts | 49° |
| 2026-04-30 18:19 | 43.97743 | 2.11267 | 21282 ft | 404 kts | 49° |
| 2026-04-30 18:19 | 43.99566 | 2.14245 | 21771 ft | 407 kts | 49° |
| 2026-04-30 18:20 | 44.01406 | 2.17257 | 22275 ft | 410 kts | 49° |
| 2026-04-30 18:20 | 44.03255 | 2.20281 | 22778 ft | 413 kts | 49° |
| 2026-04-30 18:20 | 44.05119 | 2.23332 | 23277 ft | 416 kts | 49° |
| 2026-04-30 18:20 | 44.06995 | 2.26409 | 23752 ft | 418 kts | 49° |
| 2026-04-30 18:21 | 44.08889 | 2.29519 | 24154 ft | 421 kts | 49° |
| 2026-04-30 18:21 | 44.10780 | 2.32636 | 24551 ft | 424 kts | 49° |
| 2026-04-30 18:21 | 44.12694 | 2.35793 | 24938 ft | 427 kts | 49° |
| 2026-04-30 18:21 | 44.14614 | 2.38957 | 25330 ft | 429 kts | 49° |
| 2026-04-30 18:22 | 44.16549 | 2.42150 | 25706 ft | 432 kts | 49° |
| 2026-04-30 18:22 | 44.20425 | 2.48562 | 26424 ft | 438 kts | 49° |
| 2026-04-30 18:22 | 44.21751 | 2.50758 | 26672 ft | 440 kts | 49° |
| 2026-04-30 18:23 | 44.24401 | 2.55148 | 27145 ft | 444 kts | 49° |
| 2026-04-30 18:23 | 44.26367 | 2.58406 | 27481 ft | 447 kts | 49° |
| 2026-04-30 18:23 | 44.28373 | 2.61739 | 27827 ft | 449 kts | 49° |
| 2026-04-30 18:23 | 44.30382 | 2.65086 | 28167 ft | 452 kts | 49° |
| 2026-04-30 18:24 | 44.33761 | 2.70719 | 28727 ft | 457 kts | 49° |
| 2026-04-30 18:24 | 44.35813 | 2.74142 | 29060 ft | 460 kts | 49° |
| 2026-04-30 18:24 | 44.37872 | 2.77580 | 29397 ft | 462 kts | 49° |
| 2026-04-30 18:25 | 44.39940 | 2.81037 | 29719 ft | 465 kts | 49° |
| 2026-04-30 18:25 | 44.44134 | 2.88055 | 30343 ft | 470 kts | 49° |
| 2026-04-30 18:25 | 44.46205 | 2.91533 | 30609 ft | 472 kts | 49° |
| 2026-04-30 18:26 | 44.50416 | 2.98618 | 31157 ft | 475 kts | 48° |
| 2026-04-30 18:26 | 44.52530 | 3.02178 | 31444 ft | 476 kts | 48° |
| 2026-04-30 18:26 | 44.54646 | 3.05748 | 31833 ft | 474 kts | 48° |
| 2026-04-30 18:27 | 44.58838 | 3.12837 | 32644 ft | 470 kts | 48° |
| 2026-04-30 18:27 | 44.60846 | 3.16449 | 33029 ft | 470 kts | 56° |
| 2026-04-30 18:28 | 44.64112 | 3.24412 | 33744 ft | 470 kts | 58° |
| 2026-04-30 18:28 | 44.65718 | 3.28396 | 34110 ft | 469 kts | 58° |
| 2026-04-30 18:28 | 44.68914 | 3.36373 | 34745 ft | 467 kts | 59° |
| 2026-04-30 18:29 | 44.70502 | 3.40345 | 35048 ft | 466 kts | 59° |
| 2026-04-30 18:29 | 44.75246 | 3.52225 | 35966 ft | 462 kts | 59° |
| 2026-04-30 18:30 | 44.78364 | 3.60075 | 36216 ft | 454 kts | 59° |
| 2026-04-30 18:30 | 44.81411 | 3.67791 | 36206 ft | 452 kts | 59° |
| 2026-04-30 18:31 | 44.85990 | 3.79383 | 36221 ft | 451 kts | 59° |
| 2026-04-30 18:32 | 44.90543 | 3.90960 | 36210 ft | 449 kts | 60° |
| 2026-04-30 18:33 | 44.95068 | 4.02514 | 36228 ft | 447 kts | 60° |
| 2026-04-30 18:33 | 44.99562 | 4.14043 | 36232 ft | 446 kts | 60° |
| 2026-04-30 18:34 | 45.03402 | 4.25950 | 36222 ft | 445 kts | 77° |
| 2026-04-30 18:35 | 45.04209 | 4.34612 | 36210 ft | 445 kts | 84° |
| 2026-04-30 18:35 | 45.04888 | 4.43314 | 36206 ft | 444 kts | 84° |
| 2026-04-30 18:36 | 45.05894 | 4.56346 | 36207 ft | 444 kts | 84° |
| 2026-04-30 18:37 | 45.06866 | 4.69389 | 36191 ft | 444 kts | 84° |
| 2026-04-30 18:37 | 45.07507 | 4.78014 | 36197 ft | 444 kts | 84° |
| 2026-04-30 18:38 | 45.08148 | 4.86718 | 36186 ft | 444 kts | 84° |
| 2026-04-30 18:38 | 45.08776 | 4.95405 | 36199 ft | 444 kts | 85° |
| 2026-04-30 18:39 | 45.09399 | 5.04113 | 36188 ft | 444 kts | 85° |
| 2026-04-30 18:39 | 45.10018 | 5.12806 | 36200 ft | 444 kts | 85° |
| 2026-04-30 18:40 | 45.10052 | 5.21504 | 36194 ft | 443 kts | 94° |
| 2026-04-30 18:40 | 45.09658 | 5.30203 | 36198 ft | 442 kts | 94° |
| 2026-04-30 18:41 | 45.09264 | 5.38891 | 36193 ft | 442 kts | 94° |
| 2026-04-30 18:41 | 45.08894 | 5.47579 | 36194 ft | 442 kts | 93° |
| 2026-04-30 18:42 | 45.08577 | 5.56260 | 36199 ft | 442 kts | 93° |
| 2026-04-30 18:42 | 45.08095 | 5.69299 | 36200 ft | 442 kts | 93° |
| 2026-04-30 18:45 | 45.05200 | 6.17103 | 36217 ft | 445 kts | 95° |
| 2026-04-30 18:46 | 45.04612 | 6.25807 | 36225 ft | 445 kts | 95° |
| 2026-04-30 18:46 | 45.04006 | 6.34528 | 36230 ft | 445 kts | 95° |
| 2026-04-30 18:47 | 45.03391 | 6.43127 | 36234 ft | 446 kts | 95° |
| 2026-04-30 18:47 | 45.02761 | 6.51894 | 36228 ft | 446 kts | 95° |
| 2026-04-30 18:47 | 45.02446 | 6.56269 | 36018 ft | 448 kts | 95° |
| 2026-04-30 18:48 | 45.02126 | 6.60643 | 35769 ft | 445 kts | 95° |
| 2026-04-30 18:48 | 45.01806 | 6.64987 | 35525 ft | 443 kts | 95° |
| 2026-04-30 18:48 | 45.01491 | 6.69296 | 35282 ft | 440 kts | 95° |
| 2026-04-30 18:48 | 45.01179 | 6.73588 | 35045 ft | 438 kts | 95° |
| 2026-04-30 18:49 | 45.00872 | 6.77811 | 34809 ft | 436 kts | 94° |
| 2026-04-30 18:49 | 45.00563 | 6.82062 | 34573 ft | 434 kts | 94° |
| 2026-04-30 18:49 | 45.00255 | 6.86286 | 34250 ft | 431 kts | 94° |
| 2026-04-30 18:49 | 44.99945 | 6.90495 | 33675 ft | 429 kts | 94° |
| 2026-04-30 18:50 | 44.99637 | 6.94673 | 33164 ft | 426 kts | 94° |
| 2026-04-30 18:50 | 44.99330 | 6.98826 | 32644 ft | 424 kts | 94° |
| 2026-04-30 18:50 | 44.99020 | 7.02961 | 32130 ft | 422 kts | 94° |
| 2026-04-30 18:50 | 44.98708 | 7.07065 | 31623 ft | 419 kts | 94° |
| 2026-04-30 18:51 | 44.98395 | 7.11141 | 31120 ft | 417 kts | 94° |
| 2026-04-30 18:51 | 44.98090 | 7.15194 | 30632 ft | 414 kts | 92° |
| 2026-04-30 18:51 | 44.98042 | 7.19251 | 30111 ft | 410 kts | 87° |
| 2026-04-30 18:51 | 44.98072 | 7.23253 | 29634 ft | 406 kts | 87° |
| 2026-04-30 18:52 | 44.98099 | 7.27215 | 29166 ft | 401 kts | 87° |
| 2026-04-30 18:52 | 44.98119 | 7.31138 | 28725 ft | 396 kts | 88° |
| 2026-04-30 18:52 | 44.98134 | 7.34994 | 28277 ft | 392 kts | 88° |
| 2026-04-30 18:52 | 44.98151 | 7.38841 | 27829 ft | 388 kts | 88° |
| 2026-04-30 18:53 | 44.97948 | 7.42634 | 27385 ft | 387 kts | 97° |
| 2026-04-30 18:53 | 44.97489 | 7.46351 | 26944 ft | 383 kts | 98° |
| 2026-04-30 18:53 | 44.97033 | 7.50043 | 26476 ft | 380 kts | 98° |
| 2026-04-30 18:53 | 44.96685 | 7.53727 | 25763 ft | 378 kts | 87° |
| 2026-04-30 18:54 | 44.97043 | 7.57323 | 25217 ft | 363 kts | 72° |
| 2026-04-30 18:54 | 44.97690 | 7.60697 | 24785 ft | 350 kts | 73° |
| 2026-04-30 18:54 | 44.98308 | 7.63967 | 24348 ft | 338 kts | 73° |
| 2026-04-30 18:54 | 44.98900 | 7.67123 | 23926 ft | 328 kts | 73° |
| 2026-04-30 18:55 | 44.99477 | 7.70192 | 23462 ft | 319 kts | 73° |
| 2026-04-30 18:55 | 45.00627 | 7.76238 | 22640 ft | 318 kts | 72° |
| 2026-04-30 18:55 | 45.01201 | 7.79251 | 22247 ft | 317 kts | 72° |
| 2026-04-30 18:56 | 45.02331 | 7.85208 | 21465 ft | 315 kts | 72° |
| 2026-04-30 18:56 | 45.02894 | 7.88189 | 21071 ft | 314 kts | 72° |
| 2026-04-30 18:56 | 45.03457 | 7.91172 | 20683 ft | 314 kts | 72° |
| 2026-04-30 18:57 | 45.04582 | 7.97140 | 19906 ft | 314 kts | 72° |
| 2026-04-30 18:57 | 45.05143 | 8.00119 | 19519 ft | 314 kts | 73° |
| 2026-04-30 18:57 | 45.05701 | 8.03100 | 19133 ft | 314 kts | 73° |
| 2026-04-30 18:58 | 45.06818 | 8.09105 | 18331 ft | 316 kts | 73° |
| 2026-04-30 18:58 | 45.07377 | 8.12104 | 17932 ft | 315 kts | 73° |
| 2026-04-30 18:58 | 45.07937 | 8.15101 | 17553 ft | 314 kts | 72° |
| 2026-04-30 18:59 | 45.09049 | 8.21079 | 16796 ft | 313 kts | 72° |
| 2026-04-30 19:00 | 45.10694 | 8.30019 | 15689 ft | 313 kts | 73° |
| 2026-04-30 19:00 | 45.11239 | 8.32991 | 15323 ft | 312 kts | 72° |
| 2026-04-30 19:00 | 45.12333 | 8.38949 | 14590 ft | 312 kts | 72° |
| 2026-04-30 19:01 | 45.13419 | 8.44864 | 13830 ft | 312 kts | 72° |
| 2026-04-30 19:01 | 45.13924 | 8.47627 | 13476 ft | 311 kts | 73° |
| 2026-04-30 19:02 | 45.15009 | 8.53564 | 12721 ft | 307 kts | 73° |
| 2026-04-30 19:02 | 45.16062 | 8.59362 | 11963 ft | 304 kts | 73° |
| 2026-04-30 19:03 | 45.17112 | 8.65171 | 11182 ft | 301 kts | 73° |
| 2026-04-30 19:03 | 45.18149 | 8.70908 | 10403 ft | 299 kts | 74° |
| 2026-04-30 19:04 | 45.19154 | 8.76490 | 9865 ft | 288 kts | 74° |
| 2026-04-30 19:04 | 45.20376 | 8.81669 | 9519 ft | 267 kts | 51° |
| 2026-04-30 19:05 | 45.23552 | 8.83663 | 8904 ft | 262 kts | 354° |
| 2026-04-30 19:05 | 45.27099 | 8.83115 | 8121 ft | 247 kts | 355° |
| 2026-04-30 19:06 | 45.30383 | 8.82316 | 7410 ft | 232 kts | 350° |
| 2026-04-30 19:06 | 45.31963 | 8.81878 | 7090 ft | 230 kts | 350° |
| 2026-04-30 19:06 | 45.35099 | 8.81021 | 6431 ft | 232 kts | 350° |
| 2026-04-30 19:07 | 45.37803 | 8.80282 | 5553 ft | 245 kts | 349° |
| 2026-04-30 19:07 | 45.39444 | 8.79832 | 5172 ft | 238 kts | 349° |
| 2026-04-30 19:08 | 45.42607 | 8.78966 | 4525 ft | 223 kts | 349° |
| 2026-04-30 19:08 | 45.45567 | 8.78154 | 3923 ft | 210 kts | 349° |
| 2026-04-30 19:08 | 45.46960 | 8.77772 | 3644 ft | 199 kts | 349° |
| 2026-04-30 19:09 | 45.49547 | 8.77061 | 3136 ft | 179 kts | 349° |
| 2026-04-30 19:09 | 45.50733 | 8.76735 | 2899 ft | 170 kts | 349° |
| 2026-04-30 19:09 | 45.51857 | 8.76426 | 2687 ft | 158 kts | 350° |
| 2026-04-30 19:10 | 45.53941 | 8.75857 | 2272 ft | 151 kts | 350° |
| 2026-04-30 19:10 | 45.55989 | 8.75266 | 1877 ft | 151 kts | 347° |
| 2026-04-30 19:11 | 45.57033 | 8.74988 | 1678 ft | 150 kts | 352° |
| 2026-04-30 19:11 | 45.59053 | 8.74436 | 1246 ft | 147 kts | 350° |
| 2026-04-30 19:11 | 45.60059 | 8.74169 | 1055 ft | 146 kts | 350° |
| 2026-04-30 19:12 | 45.61054 | 8.73890 | 854 ft | 145 kts | 350° |
| 2026-04-30 19:12 | 45.62048 | 8.73621 | 723 ft | 145 kts | 349° |
| 2026-04-30 19:12 | 45.62924 | 8.73380 | 728 ft | 105 kts | 351° |
| 2026-04-30 19:13 | 45.63685 | 8.73108 | 744 ft | 22 kts | 343° |
| 2026-04-30 19:13 | 45.63835 | 8.72878 | 743 ft | 9 kts | 303° |
| 2026-04-30 19:13 | 45.63864 | 8.72816 | 748 ft | 6 kts | 304° |
| 2026-04-30 19:14 | 45.63882 | 8.72778 | 750 ft | 3 kts | 304° |
| 2026-04-30 19:14 | 45.63911 | 8.72717 | 750 ft | 16 kts | 304° |
| 2026-04-30 19:14 | 45.63991 | 8.72564 | 752 ft | 19 kts | 328° |
| 2026-04-30 19:14 | 45.64112 | 8.72511 | 757 ft | 18 kts | 349° |
| 2026-04-30 19:15 | 45.64235 | 8.72475 | 759 ft | 18 kts | 351° |
| 2026-04-30 19:15 | 45.64441 | 8.72358 | 766 ft | 14 kts | 263° |
| 2026-04-30 19:15 | 45.64425 | 8.72237 | 768 ft | 11 kts | 262° |
| 2026-04-30 19:16 | 45.64444 | 8.72155 | 769 ft | 7 kts | 302° |
| 2026-04-30 19:16 | 45.64480 | 8.72127 | 770 ft | 5 kts | 335° |
| 2026-04-30 19:16 | 45.64573 | 8.72093 | 771 ft | 7 kts | 355° |
| 2026-04-30 19:17 | 45.64616 | 8.72102 | 772 ft | 6 kts | 40° |
| 2026-04-30 19:17 | 45.64632 | 8.72197 | 771 ft | 0 kts | 76° |